sensor_id;sensor_type;location;lat;lon;timestamp;pressure;altitude;pressure_sealevel;temperature;humidity
32083;BME280;18597;48.328;7.932;2022-11-27T00:00:34;100786.91;;;4.33;100.00
32083;BME280;18597;48.328;7.932;2022-11-27T00:02:59;100775.72;;;4.26;100.00
32083;BME280;18597;48.328;7.932;2022-11-27T00:05:25;100764.44;;;4.21;100.00
32083;BME280;18597;48.328;7.932;2022-11-27T00:07:51;100758.69;;;4.11;100.00
32083;BME280;18597;48.328;7.932;2022-11-27T00:10:17;100761.09;;;3.96;100.00
32083;BME280;18597;48.328;7.932;2022-11-27T00:12:43;100756.28;;;4.05;100.00
32083;BME280;18597;48.328;7.932;2022-11-27T00:15:09;100761.81;;;3.99;100.00
32083;BME280;18597;48.328;7.932;2022-11-27T00:17:34;100750.44;;;3.97;100.00
32083;BME280;18597;48.328;7.932;2022-11-27T00:20:00;100751.31;;;3.98;100.00
32083;BME280;18597;48.328;7.932;2022-11-27T00:22:26;100746.31;;;3.90;100.00
32083;BME280;18597;48.328;7.932;2022-11-27T00:24:52;100742.22;;;3.83;100.00
32083;BME280;18597;48.328;7.932;2022-11-27T00:27:18;100741.59;;;3.98;100.00
32083;BME280;18597;48.328;7.932;2022-11-27T00:29:44;100730.91;;;4.01;100.00
32083;BME280;18597;48.328;7.932;2022-11-27T00:32:10;100728.19;;;4.03;100.00
32083;BME280;18597;48.328;7.932;2022-11-27T00:34:36;100733.47;;;4.03;100.00
32083;BME280;18597;48.328;7.932;2022-11-27T00:37:02;100730.53;;;4.10;100.00
32083;BME280;18597;48.328;7.932;2022-11-27T00:39:28;100740.03;;;3.93;100.00
32083;BME280;18597;48.328;7.932;2022-11-27T00:41:54;100729.91;;;3.60;100.00
32083;BME280;18597;48.328;7.932;2022-11-27T00:44:20;100728.84;;;3.42;100.00
32083;BME280;18597;48.328;7.932;2022-11-27T00:46:45;100735.66;;;3.26;100.00
32083;BME280;18597;48.328;7.932;2022-11-27T00:49:14;100732.09;;;3.27;100.00
32083;BME280;18597;48.328;7.932;2022-11-27T00:51:40;100732.72;;;3.33;100.00
32083;BME280;18597;48.328;7.932;2022-11-27T00:54:06;100738.84;;;3.34;100.00
32083;BME280;18597;48.328;7.932;2022-11-27T00:56:36;100734.53;;;3.31;100.00
32083;BME280;18597;48.328;7.932;2022-11-27T00:59:03;100731.72;;;3.36;100.00
32083;BME280;18597;48.328;7.932;2022-11-27T01:01:34;100728.31;;;3.56;100.00
32083;BME280;18597;48.328;7.932;2022-11-27T01:04:02;100732.44;;;3.40;100.00
32083;BME280;18597;48.328;7.932;2022-11-27T01:06:29;100727.72;;;3.26;100.00
32083;BME280;18597;48.328;7.932;2022-11-27T01:08:57;100723.34;;;3.25;100.00
32083;BME280;18597;48.328;7.932;2022-11-27T01:11:27;100719.44;;;3.35;100.00
32083;BME280;18597;48.328;7.932;2022-11-27T01:14:00;100721.66;;;3.46;100.00
32083;BME280;18597;48.328;7.932;2022-11-27T01:16:30;100721.34;;;3.53;100.00
32083;BME280;18597;48.328;7.932;2022-11-27T01:18:58;100710.13;;;3.70;100.00
32083;BME280;18597;48.328;7.932;2022-11-27T01:21:29;100709.56;;;3.62;100.00
32083;BME280;18597;48.328;7.932;2022-11-27T01:23:55;100710.00;;;3.73;100.00
32083;BME280;18597;48.328;7.932;2022-11-27T01:26:21;100698.19;;;3.82;100.00
32083;BME280;18597;48.328;7.932;2022-11-27T01:28:51;100693.53;;;3.88;100.00
32083;BME280;18597;48.328;7.932;2022-11-27T01:31:22;100700.16;;;3.77;100.00
32083;BME280;18597;48.328;7.932;2022-11-27T01:33:53;100703.72;;;3.76;100.00
32083;BME280;18597;48.328;7.932;2022-11-27T01:36:20;100708.53;;;3.88;100.00
32083;BME280;18597;48.328;7.932;2022-11-27T01:38:46;100704.28;;;3.84;100.00
32083;BME280;18597;48.328;7.932;2022-11-27T01:41:23;100694.53;;;3.86;100.00
32083;BME280;18597;48.328;7.932;2022-11-27T01:43:56;100697.72;;;3.72;100.00
32083;BME280;18597;48.328;7.932;2022-11-27T01:51:57;100684.50;;;3.72;100.00
32083;BME280;18597;48.328;7.932;2022-11-27T01:54:28;100682.97;;;3.67;100.00
32083;BME280;18597;48.328;7.932;2022-11-27T01:57:03;100689.97;;;3.68;100.00
32083;BME280;18597;48.328;7.932;2022-11-27T01:59:31;100694.47;;;3.66;100.00
32083;BME280;18597;48.328;7.932;2022-11-27T02:01:57;100693.47;;;3.68;100.00
32083;BME280;18597;48.328;7.932;2022-11-27T02:04:23;100688.09;;;3.70;100.00
32083;BME280;18597;48.328;7.932;2022-11-27T02:06:49;100690.66;;;3.73;100.00
32083;BME280;18597;48.328;7.932;2022-11-27T02:09:14;100695.63;;;3.80;100.00
32083;BME280;18597;48.328;7.932;2022-11-27T02:14:49;100690.41;;;3.79;100.00
32083;BME280;18597;48.328;7.932;2022-11-27T02:17:51;100689.47;;;3.80;100.00
32083;BME280;18597;48.328;7.932;2022-11-27T02:24:08;100699.59;;;3.69;100.00
32083;BME280;18597;48.328;7.932;2022-11-27T02:29:22;100697.16;;;3.42;100.00
32083;BME280;18597;48.328;7.932;2022-11-27T02:34:48;100687.50;;;3.41;100.00
32083;BME280;18597;48.328;7.932;2022-11-27T02:37:55;100682.22;;;3.41;100.00
32083;BME280;18597;48.328;7.932;2022-11-27T02:43:24;100681.28;;;3.20;100.00
32083;BME280;18597;48.328;7.932;2022-11-27T02:45:55;100671.88;;;3.13;100.00
32083;BME280;18597;48.328;7.932;2022-11-27T02:48:33;100672.09;;;3.07;100.00
32083;BME280;18597;48.328;7.932;2022-11-27T02:51:03;100673.72;;;3.11;100.00
32083;BME280;18597;48.328;7.932;2022-11-27T02:53:37;100674.44;;;3.15;100.00
32083;BME280;18597;48.328;7.932;2022-11-27T02:56:07;100672.13;;;3.29;100.00
32083;BME280;18597;48.328;7.932;2022-11-27T02:58:36;100664.50;;;3.21;100.00
32083;BME280;18597;48.328;7.932;2022-11-27T03:01:05;100654.78;;;3.22;100.00
32083;BME280;18597;48.328;7.932;2022-11-27T03:03:39;100658.78;;;3.32;100.00
32083;BME280;18597;48.328;7.932;2022-11-27T03:06:11;100647.44;;;3.30;100.00
32083;BME280;18597;48.328;7.932;2022-11-27T03:08:50;100644.94;;;3.27;100.00
32083;BME280;18597;48.328;7.932;2022-11-27T03:11:20;100638.81;;;3.25;100.00
32083;BME280;18597;48.328;7.932;2022-11-27T03:13:52;100635.53;;;3.20;100.00
32083;BME280;18597;48.328;7.932;2022-11-27T03:19:47;100633.84;;;3.17;100.00
32083;BME280;18597;48.328;7.932;2022-11-27T03:22:16;100629.75;;;3.10;100.00
32083;BME280;18597;48.328;7.932;2022-11-27T03:24:42;100626.41;;;3.05;100.00
32083;BME280;18597;48.328;7.932;2022-11-27T03:27:08;100626.66;;;2.99;100.00
32083;BME280;18597;48.328;7.932;2022-11-27T03:29:44;100616.50;;;2.88;100.00
32083;BME280;18597;48.328;7.932;2022-11-27T03:32:12;100622.09;;;2.81;100.00
32083;BME280;18597;48.328;7.932;2022-11-27T03:34:38;100612.84;;;2.69;100.00
32083;BME280;18597;48.328;7.932;2022-11-27T03:37:04;100613.59;;;2.72;100.00
32083;BME280;18597;48.328;7.932;2022-11-27T03:39:31;100614.03;;;2.60;100.00
32083;BME280;18597;48.328;7.932;2022-11-27T03:44:52;100608.75;;;2.37;100.00
32083;BME280;18597;48.328;7.932;2022-11-27T03:51:18;100610.34;;;2.41;100.00
32083;BME280;18597;48.328;7.932;2022-11-27T03:57:05;100603.19;;;2.44;100.00
32083;BME280;18597;48.328;7.932;2022-11-27T03:59:39;100609.38;;;2.43;100.00
32083;BME280;18597;48.328;7.932;2022-11-27T04:02:13;100608.69;;;2.38;100.00
32083;BME280;18597;48.328;7.932;2022-11-27T04:04:39;100599.75;;;2.42;100.00
32083;BME280;18597;48.328;7.932;2022-11-27T04:07:05;100609.31;;;2.45;100.00
32083;BME280;18597;48.328;7.932;2022-11-27T04:09:31;100611.44;;;2.35;100.00
32083;BME280;18597;48.328;7.932;2022-11-27T04:11:56;100617.84;;;2.28;100.00
32083;BME280;18597;48.328;7.932;2022-11-27T04:14:22;100611.88;;;2.23;100.00
32083;BME280;18597;48.328;7.932;2022-11-27T04:16:48;100619.06;;;2.18;100.00
32083;BME280;18597;48.328;7.932;2022-11-27T04:19:14;100623.94;;;2.05;100.00
32083;BME280;18597;48.328;7.932;2022-11-27T04:21:39;100624.09;;;2.01;100.00
32083;BME280;18597;48.328;7.932;2022-11-27T04:24:05;100616.69;;;2.12;100.00
32083;BME280;18597;48.328;7.932;2022-11-27T04:26:31;100616.44;;;2.18;100.00
32083;BME280;18597;48.328;7.932;2022-11-27T04:28:57;100612.78;;;2.22;100.00
32083;BME280;18597;48.328;7.932;2022-11-27T04:31:23;100609.13;;;2.26;100.00
32083;BME280;18597;48.328;7.932;2022-11-27T04:33:49;100600.31;;;2.27;100.00
32083;BME280;18597;48.328;7.932;2022-11-27T04:36:14;100603.69;;;2.31;100.00
32083;BME280;18597;48.328;7.932;2022-11-27T04:38:40;100604.53;;;2.31;100.00
32083;BME280;18597;48.328;7.932;2022-11-27T04:41:06;100602.56;;;2.38;100.00
32083;BME280;18597;48.328;7.932;2022-11-27T04:43:32;100603.75;;;2.29;100.00
32083;BME280;18597;48.328;7.932;2022-11-27T04:45:57;100601.34;;;2.23;100.00
32083;BME280;18597;48.328;7.932;2022-11-27T04:48:23;100600.59;;;2.19;100.00
32083;BME280;18597;48.328;7.932;2022-11-27T04:50:49;100597.69;;;2.27;100.00
32083;BME280;18597;48.328;7.932;2022-11-27T04:53:15;100595.94;;;2.26;100.00
32083;BME280;18597;48.328;7.932;2022-11-27T04:55:41;100586.31;;;2.25;100.00
32083;BME280;18597;48.328;7.932;2022-11-27T04:58:06;100586.94;;;2.32;100.00
32083;BME280;18597;48.328;7.932;2022-11-27T05:00:32;100590.22;;;2.38;100.00
32083;BME280;18597;48.328;7.932;2022-11-27T05:02:58;100592.41;;;2.27;100.00
32083;BME280;18597;48.328;7.932;2022-11-27T05:05:24;100591.69;;;2.22;100.00
32083;BME280;18597;48.328;7.932;2022-11-27T05:07:50;100596.84;;;2.25;100.00
32083;BME280;18597;48.328;7.932;2022-11-27T05:10:15;100586.06;;;2.08;100.00
32083;BME280;18597;48.328;7.932;2022-11-27T05:12:41;100587.56;;;1.90;100.00
32083;BME280;18597;48.328;7.932;2022-11-27T05:15:08;100572.13;;;1.79;100.00
32083;BME280;18597;48.328;7.932;2022-11-27T05:17:34;100573.09;;;1.77;100.00
32083;BME280;18597;48.328;7.932;2022-11-27T05:19:59;100573.19;;;1.74;100.00
32083;BME280;18597;48.328;7.932;2022-11-27T05:22:25;100575.44;;;1.59;100.00
32083;BME280;18597;48.328;7.932;2022-11-27T05:24:51;100578.94;;;1.60;100.00
32083;BME280;18597;48.328;7.932;2022-11-27T05:27:17;100584.41;;;1.54;100.00
32083;BME280;18597;48.328;7.932;2022-11-27T05:29:43;100589.69;;;1.54;100.00
32083;BME280;18597;48.328;7.932;2022-11-27T05:32:09;100588.38;;;1.67;100.00
32083;BME280;18597;48.328;7.932;2022-11-27T05:34:34;100597.41;;;1.58;100.00
32083;BME280;18597;48.328;7.932;2022-11-27T05:37:00;100590.16;;;1.65;100.00
32083;BME280;18597;48.328;7.932;2022-11-27T05:39:26;100597.13;;;1.67;100.00
32083;BME280;18597;48.328;7.932;2022-11-27T05:41:52;100593.19;;;1.79;100.00
32083;BME280;18597;48.328;7.932;2022-11-27T05:44:17;100599.19;;;1.84;100.00
32083;BME280;18597;48.328;7.932;2022-11-27T05:46:43;100589.88;;;1.74;100.00
32083;BME280;18597;48.328;7.932;2022-11-27T05:49:12;100581.91;;;1.76;100.00
32083;BME280;18597;48.328;7.932;2022-11-27T05:51:39;100585.22;;;1.81;100.00
32083;BME280;18597;48.328;7.932;2022-11-27T05:54:04;100592.34;;;1.79;100.00
32083;BME280;18597;48.328;7.932;2022-11-27T05:56:30;100581.66;;;1.83;100.00
32083;BME280;18597;48.328;7.932;2022-11-27T05:58:57;100563.28;;;1.80;100.00
32083;BME280;18597;48.328;7.932;2022-11-27T06:01:23;100562.69;;;1.72;100.00
32083;BME280;18597;48.328;7.932;2022-11-27T06:03:48;100564.28;;;1.78;100.00
32083;BME280;18597;48.328;7.932;2022-11-27T06:06:17;100554.25;;;1.87;100.00
32083;BME280;18597;48.328;7.932;2022-11-27T06:08:45;100550.81;;;1.85;100.00
32083;BME280;18597;48.328;7.932;2022-11-27T06:11:16;100537.78;;;1.82;100.00
32083;BME280;18597;48.328;7.932;2022-11-27T06:13:43;100528.19;;;1.80;100.00
32083;BME280;18597;48.328;7.932;2022-11-27T06:16:16;100516.09;;;1.74;100.00
32083;BME280;18597;48.328;7.932;2022-11-27T06:18:44;100517.91;;;1.72;100.00
32083;BME280;18597;48.328;7.932;2022-11-27T06:21:13;100512.56;;;1.75;100.00
32083;BME280;18597;48.328;7.932;2022-11-27T06:23:41;100503.72;;;1.76;100.00
32083;BME280;18597;48.328;7.932;2022-11-27T06:28:47;100494.56;;;1.86;100.00
32083;BME280;18597;48.328;7.932;2022-11-27T06:31:17;100491.22;;;1.83;100.00
32083;BME280;18597;48.328;7.932;2022-11-27T06:33:45;100490.06;;;1.90;100.00
32083;BME280;18597;48.328;7.932;2022-11-27T06:36:11;100488.38;;;1.87;100.00
32083;BME280;18597;48.328;7.932;2022-11-27T06:38:38;100483.13;;;1.87;100.00
32083;BME280;18597;48.328;7.932;2022-11-27T06:41:08;100490.97;;;1.89;100.00
32083;BME280;18597;48.328;7.932;2022-11-27T06:43:35;100498.72;;;1.93;100.00
32083;BME280;18597;48.328;7.932;2022-11-27T06:46:02;100500.34;;;1.98;100.00
32083;BME280;18597;48.328;7.932;2022-11-27T06:48:29;100513.38;;;2.01;100.00
32083;BME280;18597;48.328;7.932;2022-11-27T06:51:00;100519.31;;;2.07;100.00
32083;BME280;18597;48.328;7.932;2022-11-27T06:53:26;100530.84;;;2.03;100.00
32083;BME280;18597;48.328;7.932;2022-11-27T06:55:52;100545.78;;;2.04;100.00
32083;BME280;18597;48.328;7.932;2022-11-27T06:58:18;100546.38;;;2.12;100.00
32083;BME280;18597;48.328;7.932;2022-11-27T07:00:44;100540.31;;;2.09;100.00
32083;BME280;18597;48.328;7.932;2022-11-27T07:03:10;100541.94;;;2.13;100.00
32083;BME280;18597;48.328;7.932;2022-11-27T07:05:35;100545.44;;;2.13;100.00
32083;BME280;18597;48.328;7.932;2022-11-27T07:08:01;100533.97;;;2.14;100.00
32083;BME280;18597;48.328;7.932;2022-11-27T07:10:27;100532.13;;;2.16;100.00
32083;BME280;18597;48.328;7.932;2022-11-27T07:12:53;100527.78;;;2.15;100.00
32083;BME280;18597;48.328;7.932;2022-11-27T07:15:19;100518.81;;;2.21;100.00
32083;BME280;18597;48.328;7.932;2022-11-27T07:17:45;100510.59;;;2.29;100.00
32083;BME280;18597;48.328;7.932;2022-11-27T07:20:11;100506.31;;;2.49;100.00
32083;BME280;18597;48.328;7.932;2022-11-27T07:22:37;100494.88;;;2.49;100.00
32083;BME280;18597;48.328;7.932;2022-11-27T07:25:03;100487.25;;;2.41;100.00
32083;BME280;18597;48.328;7.932;2022-11-27T07:27:29;100483.22;;;2.55;100.00
32083;BME280;18597;48.328;7.932;2022-11-27T07:29:55;100478.69;;;2.58;100.00
32083;BME280;18597;48.328;7.932;2022-11-27T07:32:21;100484.44;;;2.46;100.00
32083;BME280;18597;48.328;7.932;2022-11-27T07:34:46;100483.97;;;2.58;100.00
32083;BME280;18597;48.328;7.932;2022-11-27T07:37:12;100479.50;;;2.60;100.00
32083;BME280;18597;48.328;7.932;2022-11-27T07:39:38;100477.56;;;2.64;100.00
32083;BME280;18597;48.328;7.932;2022-11-27T07:42:04;100490.53;;;2.70;100.00
32083;BME280;18597;48.328;7.932;2022-11-27T07:44:30;100499.06;;;2.76;100.00
32083;BME280;18597;48.328;7.932;2022-11-27T07:46:55;100493.31;;;2.89;100.00
32083;BME280;18597;48.328;7.932;2022-11-27T07:49:21;100492.19;;;2.94;100.00
32083;BME280;18597;48.328;7.932;2022-11-27T07:51:47;100490.00;;;3.05;100.00
32083;BME280;18597;48.328;7.932;2022-11-27T07:54:13;100482.56;;;2.93;100.00
32083;BME280;18597;48.328;7.932;2022-11-27T07:56:38;100474.94;;;3.08;100.00
32083;BME280;18597;48.328;7.932;2022-11-27T07:59:04;100475.63;;;3.13;100.00
32083;BME280;18597;48.328;7.932;2022-11-27T08:01:30;100474.00;;;3.09;100.00
32083;BME280;18597;48.328;7.932;2022-11-27T08:03:56;100483.69;;;3.30;100.00
32083;BME280;18597;48.328;7.932;2022-11-27T08:06:24;100484.03;;;3.43;100.00
32083;BME280;18597;48.328;7.932;2022-11-27T08:08:51;100470.88;;;3.61;100.00
32083;BME280;18597;48.328;7.932;2022-11-27T08:11:25;100467.44;;;3.80;100.00
32083;BME280;18597;48.328;7.932;2022-11-27T08:13:56;100468.31;;;3.99;100.00
32083;BME280;18597;48.328;7.932;2022-11-27T08:16:22;100467.50;;;4.17;100.00
32083;BME280;18597;48.328;7.932;2022-11-27T08:18:48;100457.78;;;4.37;100.00
32083;BME280;18597;48.328;7.932;2022-11-27T08:21:14;100455.13;;;4.56;100.00
32083;BME280;18597;48.328;7.932;2022-11-27T08:23:40;100444.88;;;4.67;100.00
32083;BME280;18597;48.328;7.932;2022-11-27T08:26:08;100439.00;;;4.60;100.00
32083;BME280;18597;48.328;7.932;2022-11-27T08:28:34;100427.72;;;4.38;100.00
32083;BME280;18597;48.328;7.932;2022-11-27T08:31:02;100433.91;;;4.38;100.00
32083;BME280;18597;48.328;7.932;2022-11-27T08:33:30;100431.81;;;4.45;100.00
32083;BME280;18597;48.328;7.932;2022-11-27T08:35:56;100427.41;;;4.27;100.00
32083;BME280;18597;48.328;7.932;2022-11-27T08:38:22;100422.63;;;4.16;100.00
32083;BME280;18597;48.328;7.932;2022-11-27T08:41:06;100425.03;;;4.39;100.00
32083;BME280;18597;48.328;7.932;2022-11-27T08:43:32;100422.84;;;4.66;100.00
32083;BME280;18597;48.328;7.932;2022-11-27T08:45:58;100421.09;;;5.01;100.00
32083;BME280;18597;48.328;7.932;2022-11-27T08:48:27;100422.44;;;5.27;100.00
32083;BME280;18597;48.328;7.932;2022-11-27T08:50:53;100431.00;;;5.50;100.00
32083;BME280;18597;48.328;7.932;2022-11-27T08:53:19;100427.53;;;5.65;100.00
32083;BME280;18597;48.328;7.932;2022-11-27T08:55:45;100422.22;;;5.82;100.00
32083;BME280;18597;48.328;7.932;2022-11-27T08:58:11;100430.16;;;6.00;100.00
32083;BME280;18597;48.328;7.932;2022-11-27T09:00:38;100417.84;;;6.15;100.00
32083;BME280;18597;48.328;7.932;2022-11-27T09:03:04;100415.22;;;6.30;100.00
32083;BME280;18597;48.328;7.932;2022-11-27T09:05:31;100418.19;;;6.40;100.00
32083;BME280;18597;48.328;7.932;2022-11-27T09:07:57;100414.78;;;6.54;100.00
32083;BME280;18597;48.328;7.932;2022-11-27T09:10:24;100406.53;;;6.74;100.00
32083;BME280;18597;48.328;7.932;2022-11-27T09:12:50;100419.09;;;6.86;100.00
32083;BME280;18597;48.328;7.932;2022-11-27T09:15:17;100435.28;;;6.98;100.00
32083;BME280;18597;48.328;7.932;2022-11-27T09:17:43;100431.53;;;6.86;100.00
32083;BME280;18597;48.328;7.932;2022-11-27T09:20:10;100431.31;;;6.75;100.00
32083;BME280;18597;48.328;7.932;2022-11-27T09:22:38;100421.28;;;6.64;100.00
32083;BME280;18597;48.328;7.932;2022-11-27T09:25:04;100423.19;;;6.46;100.00
32083;BME280;18597;48.328;7.932;2022-11-27T09:27:30;100417.19;;;6.43;100.00
32083;BME280;18597;48.328;7.932;2022-11-27T09:29:56;100416.06;;;6.47;100.00
32083;BME280;18597;48.328;7.932;2022-11-27T09:32:22;100408.94;;;6.63;100.00
32083;BME280;18597;48.328;7.932;2022-11-27T09:34:50;100403.09;;;6.88;100.00
32083;BME280;18597;48.328;7.932;2022-11-27T09:37:16;100398.81;;;7.15;100.00
32083;BME280;18597;48.328;7.932;2022-11-27T09:39:42;100387.19;;;7.46;100.00
32083;BME280;18597;48.328;7.932;2022-11-27T09:42:20;100387.59;;;7.83;100.00
32083;BME280;18597;48.328;7.932;2022-11-27T09:44:56;100384.44;;;8.19;100.00
32083;BME280;18597;48.328;7.932;2022-11-27T09:47:47;100387.16;;;8.46;100.00
32083;BME280;18597;48.328;7.932;2022-11-27T09:50:22;100385.97;;;8.65;100.00
32083;BME280;18597;48.328;7.932;2022-11-27T09:52:55;100385.97;;;8.65;100.00
32083;BME280;18597;48.328;7.932;2022-11-27T09:55:37;100381.84;;;8.73;100.00
32083;BME280;18597;48.328;7.932;2022-11-27T09:58:14;100382.19;;;8.81;100.00
32083;BME280;18597;48.328;7.932;2022-11-27T10:00:43;100363.25;;;8.86;100.00
32083;BME280;18597;48.328;7.932;2022-11-27T10:03:26;100366.09;;;8.83;100.00
32083;BME280;18597;48.328;7.932;2022-11-27T10:09:20;100365.13;;;8.84;98.83
32083;BME280;18597;48.328;7.932;2022-11-27T10:17:38;100345.78;;;8.95;100.00
32083;BME280;18597;48.328;7.932;2022-11-27T10:23:57;100326.53;;;9.16;98.68
32083;BME280;18597;48.328;7.932;2022-11-27T10:26:18;100320.97;;;9.20;95.59
32083;BME280;18597;48.328;7.932;2022-11-27T10:29:16;100318.09;;;9.10;96.38
32083;BME280;18597;48.328;7.932;2022-11-27T10:31:53;100313.09;;;8.66;97.51
32083;BME280;18597;48.328;7.932;2022-11-27T10:37:17;100299.59;;;8.00;100.00
32083;BME280;18597;48.328;7.932;2022-11-27T10:39:57;100300.13;;;8.20;100.00
32083;BME280;18597;48.328;7.932;2022-11-27T10:42:35;100290.31;;;8.20;100.00
32083;BME280;18597;48.328;7.932;2022-11-27T10:47:53;100304.94;;;8.27;100.00
32083;BME280;18597;48.328;7.932;2022-11-27T10:50:19;100303.47;;;8.50;100.00
32083;BME280;18597;48.328;7.932;2022-11-27T10:52:54;100283.56;;;8.69;100.00
32083;BME280;18597;48.328;7.932;2022-11-27T10:59:08;100290.59;;;9.09;100.00
32083;BME280;18597;48.328;7.932;2022-11-27T11:01:47;100279.28;;;9.18;100.00
32083;BME280;18597;48.328;7.932;2022-11-27T11:04:20;100277.34;;;9.33;100.00
32083;BME280;18597;48.328;7.932;2022-11-27T11:06:48;100274.91;;;9.30;100.00
32083;BME280;18597;48.328;7.932;2022-11-27T11:11:47;100268.38;;;9.47;100.00
32083;BME280;18597;48.328;7.932;2022-11-27T11:14:24;100265.19;;;9.55;100.00
32083;BME280;18597;48.328;7.932;2022-11-27T11:16:52;100263.06;;;9.47;100.00
32083;BME280;18597;48.328;7.932;2022-11-27T11:19:36;100258.69;;;9.46;99.37
32083;BME280;18597;48.328;7.932;2022-11-27T11:22:12;100262.84;;;9.37;98.69
32083;BME280;18597;48.328;7.932;2022-11-27T11:24:39;100246.94;;;9.36;99.22
32083;BME280;18597;48.328;7.932;2022-11-27T11:27:22;100249.53;;;9.37;98.19
32083;BME280;18597;48.328;7.932;2022-11-27T11:29:53;100242.75;;;9.44;97.38
32083;BME280;18597;48.328;7.932;2022-11-27T11:35:00;100238.25;;;9.70;96.01
32083;BME280;18597;48.328;7.932;2022-11-27T11:37:31;100228.72;;;9.79;96.30
32083;BME280;18597;48.328;7.932;2022-11-27T11:40:06;100230.59;;;9.90;97.11
32083;BME280;18597;48.328;7.932;2022-11-27T11:42:35;100236.34;;;9.96;96.06
32083;BME280;18597;48.328;7.932;2022-11-27T11:47:57;100203.16;;;9.88;94.05
32083;BME280;18597;48.328;7.932;2022-11-27T11:50:41;100196.00;;;9.88;96.16
32083;BME280;18597;48.328;7.932;2022-11-27T11:59:06;100178.94;;;10.15;96.47
32083;BME280;18597;48.328;7.932;2022-11-27T12:05:31;100174.94;;;10.20;94.91
32083;BME280;18597;48.328;7.932;2022-11-27T12:15:02;100150.13;;;10.42;90.61
32083;BME280;18597;48.328;7.932;2022-11-27T12:17:57;100148.44;;;10.41;92.93
32083;BME280;18597;48.328;7.932;2022-11-27T12:21:13;100145.69;;;10.43;91.75
32083;BME280;18597;48.328;7.932;2022-11-27T12:29:36;100119.47;;;10.59;92.98
32083;BME280;18597;48.328;7.932;2022-11-27T12:35:31;100116.81;;;10.59;91.21
32083;BME280;18597;48.328;7.932;2022-11-27T12:41:31;100100.75;;;10.48;96.52
32083;BME280;18597;48.328;7.932;2022-11-27T12:44:00;100103.28;;;10.38;99.17
32083;BME280;18597;48.328;7.932;2022-11-27T12:46:55;100098.28;;;10.34;100.00
32083;BME280;18597;48.328;7.932;2022-11-27T12:49:32;100088.81;;;10.30;100.00
32083;BME280;18597;48.328;7.932;2022-11-27T12:52:19;100083.28;;;10.20;100.00
32083;BME280;18597;48.328;7.932;2022-11-27T12:55:00;100085.34;;;10.16;100.00
32083;BME280;18597;48.328;7.932;2022-11-27T12:57:45;100077.69;;;10.12;100.00
32083;BME280;18597;48.328;7.932;2022-11-27T13:00:17;100080.94;;;10.04;100.00
32083;BME280;18597;48.328;7.932;2022-11-27T13:06:05;100077.59;;;9.54;100.00
32083;BME280;18597;48.328;7.932;2022-11-27T13:09:09;100061.88;;;9.38;100.00
32083;BME280;18597;48.328;7.932;2022-11-27T13:11:39;100060.50;;;9.33;100.00
32083;BME280;18597;48.328;7.932;2022-11-27T13:14:24;100061.94;;;9.26;100.00
32083;BME280;18597;48.328;7.932;2022-11-27T13:16:57;100059.38;;;9.24;100.00
32083;BME280;18597;48.328;7.932;2022-11-27T13:19:41;100052.97;;;9.27;100.00
32083;BME280;18597;48.328;7.932;2022-11-27T13:22:15;100056.44;;;9.16;100.00
32083;BME280;18597;48.328;7.932;2022-11-27T13:24:46;100056.00;;;9.09;100.00
32083;BME280;18597;48.328;7.932;2022-11-27T13:27:16;100049.75;;;8.98;100.00
32083;BME280;18597;48.328;7.932;2022-11-27T13:29:57;100042.84;;;8.95;100.00
32083;BME280;18597;48.328;7.932;2022-11-27T13:32:30;100047.47;;;8.68;100.00
32083;BME280;18597;48.328;7.932;2022-11-27T13:34:59;100051.75;;;8.70;100.00
32083;BME280;18597;48.328;7.932;2022-11-27T13:40:27;100041.63;;;8.50;100.00
32083;BME280;18597;48.328;7.932;2022-11-27T13:42:55;100041.59;;;8.12;100.00
32083;BME280;18597;48.328;7.932;2022-11-27T13:45:27;100036.84;;;8.17;100.00
32083;BME280;18597;48.328;7.932;2022-11-27T13:47:56;100013.91;;;8.14;100.00
32083;BME280;18597;48.328;7.932;2022-11-27T13:50:24;100018.28;;;8.15;100.00
32083;BME280;18597;48.328;7.932;2022-11-27T13:53:06;100005.31;;;8.11;100.00
32083;BME280;18597;48.328;7.932;2022-11-27T13:55:36;99995.19;;;8.16;100.00
32083;BME280;18597;48.328;7.932;2022-11-27T13:58:04;99985.19;;;8.19;100.00
32083;BME280;18597;48.328;7.932;2022-11-27T14:00:37;99987.00;;;8.19;100.00
32083;BME280;18597;48.328;7.932;2022-11-27T14:03:05;99979.22;;;8.28;100.00
32083;BME280;18597;48.328;7.932;2022-11-27T14:05:43;99982.84;;;8.15;100.00
32083;BME280;18597;48.328;7.932;2022-11-27T14:08:28;99972.84;;;8.05;100.00
32083;BME280;18597;48.328;7.932;2022-11-27T14:11:03;99974.75;;;8.03;100.00
32083;BME280;18597;48.328;7.932;2022-11-27T14:13:41;99973.06;;;8.02;100.00
32083;BME280;18597;48.328;7.932;2022-11-27T14:16:33;99971.38;;;8.01;100.00
32083;BME280;18597;48.328;7.932;2022-11-27T14:19:03;99970.59;;;8.12;100.00
32083;BME280;18597;48.328;7.932;2022-11-27T14:21:39;99972.84;;;8.05;100.00
32083;BME280;18597;48.328;7.932;2022-11-27T14:24:32;99972.84;;;8.05;100.00
32083;BME280;18597;48.328;7.932;2022-11-27T14:26:58;99969.97;;;7.96;100.00
32083;BME280;18597;48.328;7.932;2022-11-27T14:29:28;99964.97;;;7.91;100.00
32083;BME280;18597;48.328;7.932;2022-11-27T14:32:00;99963.69;;;7.84;100.00
32083;BME280;18597;48.328;7.932;2022-11-27T14:34:31;99962.94;;;7.82;100.00
32083;BME280;18597;48.328;7.932;2022-11-27T14:36:58;99961.13;;;7.70;100.00
32083;BME280;18597;48.328;7.932;2022-11-27T14:39:33;99968.69;;;7.63;100.00
32083;BME280;18597;48.328;7.932;2022-11-27T14:42:03;99966.22;;;7.60;100.00
32083;BME280;18597;48.328;7.932;2022-11-27T14:44:30;99960.69;;;7.50;100.00
32083;BME280;18597;48.328;7.932;2022-11-27T14:47:00;99956.31;;;7.49;100.00